Pagrindinis puslapis
METAR-TAF:

METAR-TAF

Oro uostai :

Esbjergas, Danija

platuma: 55-32N, ilguma: 008-34E, Aukštis: 30 m

Dabartinis oras

Ataskaita buvo paskelbta 53 minutes, ne 04:20 UTC
Vėjas 10 kt iš Pietryčių
Temperatūra 13°C
Drėgmė 88%
Slėgis 1004 hPa
Matomumas 10 km arba daugiau

METAR: EKEB 160420Z AUTO 14010KT 9999 BKN016/// 13/11 Q1004

Laikas: 07:13 (05:13 UTC)

Prognozė

Ataskaita buvo paskelbta 1 valandą ir 47 minutes, ne 03:26 UTC
Prognozė galioja nuo 16 metu 04 UTC su 16 metu 12 UTC
Vėjas 10 kt iš Pietų/Pietryčių
Matomumas 10 km arba daugiau
Su prošvaistėmis ne aukštis 2500 ft
Laikinai
nuo 16 metu 04 UTC su 16 metu 12 UTC
Išsisklaidę debesys ne aukštis 2000 ft, Liūtiniai kamuoliniai debesys.

TAF: EKEB 160326Z 1604/1612 16010KT 9999 BKN025 TEMPO 1604/1612 SCT020CB

Orai ataskaitas ir orų prognozės (METAR, TAF).

turimą stotys yra geltonos ir raudonos taškus žemėlapyje.

Perkelti pele per norėdami pamatyti stoties vardą.

Tada spustelėkite, norėdami matyti oro stebėjimo ir prognozės.

Norėdami pakeisti žemėlapį: spustelėkite ant žalios mygtukų su juodo kryžiaus žemyn,; žalią mygtuką su brūkšneliu, jei norite nutolinti; arba žalių rodyklių gretimoms žemėlapius.


METAR-TAF: